Flight Track Log - Related Links

Times and Time Zones

All times are in EDT time to prevent confusion due to time zone crossing. See the N606FT flight status page for this flight to view local times or setup timezone preferences in your user account.

Time Position Orientation Groundspeed Altitude Reporting Facility
EDT Latitude Longitude Course Direction KTS MPH feet Rate Location/Type
Sat 04:50:15 PM 28.3000 -80.8833 270° West 96 110 3,600  Level Orlando TRACON
Sat 04:51:15 PM 28.3000 -80.9000 270° West 86 99 3,600  Level Orlando TRACON
Sat 04:52:15 PM 28.2833 -80.9333 240° Southwest 87 100 3,600  Level Orlando TRACON
Sat 04:53:15 PM 28.2667 -80.9500 221° Southwest 88 101 3,600  Level Orlando TRACON
Sat 04:54:15 PM 28.2500 -80.9833 240° Southwest 83 96 3,600  Level Orlando TRACON
Sat 04:55:15 PM 28.2500 -81.0000 270° West 91 105 3,600  Level Orlando TRACON
Sat 04:56:15 PM 28.2333 -81.0333 240° Southwest 89 102 3,600  Level Orlando TRACON
Sat 04:57:15 PM 28.2333 -81.0500 270° West 96 110 3,600  Level Orlando TRACON
Sat 04:58:15 PM 28.2167 -81.0833 240° Southwest 93 107 3,600  Level Orlando TRACON
Sat 04:59:15 PM 28.2000 -81.1000 221° Southwest 85 98 3,600  Level Orlando TRACON
Sat 05:00:15 PM 28.1833 -81.1333 240° Southwest 99 114 3,600 -50 Level Orlando TRACON
Sat 05:01:16 PM 28.1667 -81.1500 221° Southwest 98 113 3,500  Descending Orlando TRACON
Sat 05:02:16 PM 28.1500 -81.1833 240° Southwest 86 99 3,600 50 Climbing Orlando TRACON
Sat 05:03:16 PM 28.1333 -81.2000 221° Southwest 88 101 3,600 -50 Level Orlando TRACON
Sat 05:04:16 PM 28.1167 -81.2167 221° Southwest 92 106 3,500  Descending Orlando TRACON
Sat 05:05:16 PM 28.1000 -81.2333 221° Southwest 90 104 3,600 36 Climbing Orlando TRACON
Sat 05:07:02 PM 28.0619 -81.2611 213° Southwest 91 105 3,600  Level Miami Center
Sat 05:08:02 PM 28.0386 -81.2744 207° Southwest 96 110 3,600  Level Miami Center
Sat 05:09:02 PM 28.0153 -81.2853 202° Southwest 96 110 3,600  Level Miami Center
Sat 05:10:02 PM 27.9900 -81.2961 201° Southwest 96 110 3,600  Level Miami Center
Sat 05:11:02 PM 27.9689 -81.3092 209° Southwest 96 110 3,600  Level Miami Center
Sat 05:12:02 PM 27.9453 -81.3225 207° Southwest 96 110 3,600  Level Miami Center
Sat 05:13:02 PM 27.9222 -81.3308 198° South 96 110 3,600  Level Miami Center
Sat 05:14:02 PM 27.8989 -81.3442 207° Southwest 96 110 3,600  Level Miami Center
Sat 05:15:02 PM 27.8753 -81.3597 210° Southwest 96 110 3,600  Level Miami Center
Sat 05:16:02 PM 27.8539 -81.3753 213° Southwest 96 110 3,600 -50 Level Miami Center
Sat 05:17:02 PM 27.8328 -81.3886 209° Southwest 101 116 3,500 -50 Descending Miami Center
Sat 05:18:02 PM 27.8156 -81.4019 214° Southwest 101 116 3,500 50 Level Miami Center
Sat 05:19:02 PM 27.7922 -81.4150 206° Southwest 95 109 3,600 50 Climbing Miami Center
Sat 05:20:02 PM 27.7711 -81.4258 204° Southwest 95 109 3,600  Level Miami Center
Sat 05:21:02 PM 27.7478 -81.4367 202° Southwest 95 109 3,600  Level Miami Center
Sat 05:22:02 PM 27.7244 -81.4453 198° South 95 109 3,600  Level Miami Center
Sat 05:23:02 PM 27.7011 -81.4583 206° Southwest 95 109 3,600  Level Miami Center
Sat 05:24:02 PM 27.6778 -81.4667 198° South 95 109 3,600 -50 Level Miami Center
Sat 05:25:02 PM 27.6528 -81.4728 192° South 95 109 3,500 -50 Descending Miami Center
Sat 05:26:02 PM 27.6294 -81.4811 198° South 95 109 3,500 50 Level Miami Center
Sat 05:27:02 PM 27.6064 -81.4850 189° South 90 104 3,600 50 Climbing Miami Center
Sat 05:28:02 PM 27.5831 -81.4933 198° South 90 104 3,600  Level Miami Center
Sat 05:29:02 PM 27.5581 -81.4969 187° South 95 109 3,600  Level Miami Center
Sat 05:30:03 PM 27.5328 -81.5031 192° South 95 109 3,600  Level Miami Center
Sat 05:31:02 PM 27.5075 -81.5089 192° South 95 109 3,600  Level Miami Center
Sat 05:32:03 PM 27.4822 -81.5128 188° South 95 109 3,600  Level Miami Center
Sat 05:33:02 PM 27.4569 -81.5211 196° South 90 104 3,600  Level Miami Center
Sat 05:34:02 PM 27.4317 -81.5294 196° South 90 104 3,600  Level Miami Center
Sat 05:35:03 PM 27.4064 -81.5378 196° South 90 104 3,600  Level Miami Center
Sat 05:36:02 PM 27.3833 -81.5436 193° South 90 104 3,600  Level Miami Center
Sat 05:37:14 PM 27.3600 -81.5522 198° South 90 104 3,600  Level Miami Center
Sat 05:38:14 PM 27.3306 -81.5625 197° South 90 104 3,600  Level Miami Center
Sat 05:39:14 PM 27.3069 -81.5756 206° Southwest 90 104 3,600  Level Miami Center
Sat 05:40:14 PM 27.2856 -81.5911 213° Southwest 90 104 3,600 50 Level Miami Center
Sat 05:41:14 PM 27.2642 -81.6067 213° Southwest 95 109 3,700  Climbing Miami Center
Sat 05:42:14 PM 27.2428 -81.6244 216° Southwest 100 115 3,600 -50 Descending Miami Center
Sat 05:43:14 PM 27.2194 -81.6375 206° Southwest 100 115 3,600  Level Miami Center
Sat 05:44:14 PM 27.2000 -81.6531 215° Southwest 100 115 3,600 -50 Level Miami Center
Sat 05:45:14 PM 27.1786 -81.6731 220° Southwest 100 115 3,500  Descending Miami Center
Sat 05:46:14 PM 27.1572 -81.6886 213° Southwest 100 115 3,600  Climbing Miami Center
Sat 05:47:14 PM 27.1317 -81.7014 204° Southwest 100 115 3,500 -200 Descending Miami Center
Sat 05:48:14 PM 27.1103 -81.7144 209° Southwest 100 115 3,200 -50 Descending Miami Center
Sat 05:49:14 PM 27.0872 -81.7206 193° South 89 102 3,400 200 Climbing Miami Center
Sat 05:50:14 PM 27.0661 -81.7314 205° Southwest 89 102 3,600 99 Climbing Miami Center
Sat 05:51:15 PM 27.0406 -81.7419 200° South 89 102 3,600 -50 Level Miami Center
Sat 05:52:14 PM 27.0172 -81.7550 206° Southwest 89 102 3,500 -151 Descending Miami Center
Sat 05:53:14 PM 26.9961 -81.7658 205° Southwest 95 109 3,300 -250 Descending Miami Center
Sat 05:54:14 PM 26.9683 -81.7786 202° Southwest 95 109 3,000 -300 Descending Miami Center
Sat 05:56:00 PM 26.9178 -81.7797 181° South  Level FlightAware Approximate
Sat 06:03:00 PM 26.7225 -81.8290 197° South  Level Estimated
Sat 06:04:00 PM 26.6942 -81.8242 171° South  Level FlightAware Approximate
Sat 06:05:00 PM 26.6660 -81.8194 171° South  Level FlightAware Approximate
Sat 06:06:00 PM 26.6403 -81.8336 204° Southwest  Level Estimated
Sat 06:07:00 PM 26.6126 -81.8416 194° South  Level FlightAware Approximate
Sat 06:08:00 PM 26.5833 -81.8500 204° Southwest  Level FlightAware Approximate
Sat 06:09:00 PM 26.5866 -81.8633 204° Southwest  Level Estimated

Login

Don't have an account? Register now (free) for customized features, flight alerts, and more!